sensor_id;sensor_type;location;lat;lon;timestamp;P1;durP1;ratioP1;P2;durP2;ratioP2
3922;SDS011;1976;51.694;6.256;2023-02-05T00:01:51;16.30;;;5.77;;
3922;SDS011;1976;51.694;6.256;2023-02-05T00:04:16;32.00;;;6.27;;
3922;SDS011;1976;51.694;6.256;2023-02-05T00:06:42;22.30;;;6.03;;
3922;SDS011;1976;51.694;6.256;2023-02-05T00:09:09;25.40;;;6.13;;
3922;SDS011;1976;51.694;6.256;2023-02-05T00:11:34;34.33;;;5.80;;
3922;SDS011;1976;51.694;6.256;2023-02-05T00:14:00;23.70;;;5.90;;
3922;SDS011;1976;51.694;6.256;2023-02-05T00:16:26;17.80;;;5.23;;
3922;SDS011;1976;51.694;6.256;2023-02-05T00:18:52;35.93;;;7.00;;
3922;SDS011;1976;51.694;6.256;2023-02-05T00:21:18;20.23;;;6.67;;
3922;SDS011;1976;51.694;6.256;2023-02-05T00:23:45;41.60;;;8.40;;
3922;SDS011;1976;51.694;6.256;2023-02-05T00:26:11;13.70;;;5.40;;
3922;SDS011;1976;51.694;6.256;2023-02-05T00:28:38;20.00;;;6.80;;
3922;SDS011;1976;51.694;6.256;2023-02-05T00:33:38;27.07;;;5.73;;
3922;SDS011;1976;51.694;6.256;2023-02-05T00:36:03;15.13;;;5.17;;
3922;SDS011;1976;51.694;6.256;2023-02-05T00:38:29;18.57;;;5.40;;
3922;SDS011;1976;51.694;6.256;2023-02-05T00:40:55;26.00;;;5.97;;
3922;SDS011;1976;51.694;6.256;2023-02-05T00:43:21;31.43;;;6.47;;
3922;SDS011;1976;51.694;6.256;2023-02-05T00:45:46;38.37;;;6.03;;
3922;SDS011;1976;51.694;6.256;2023-02-05T00:48:12;24.33;;;6.07;;
3922;SDS011;1976;51.694;6.256;2023-02-05T00:50:38;16.53;;;5.57;;
3922;SDS011;1976;51.694;6.256;2023-02-05T00:53:03;18.40;;;4.73;;
3922;SDS011;1976;51.694;6.256;2023-02-05T00:55:29;25.30;;;6.50;;
3922;SDS011;1976;51.694;6.256;2023-02-05T00:57:55;36.10;;;7.40;;
3922;SDS011;1976;51.694;6.256;2023-02-05T01:00:21;44.97;;;8.60;;
3922;SDS011;1976;51.694;6.256;2023-02-05T01:02:46;20.43;;;7.17;;
3922;SDS011;1976;51.694;6.256;2023-02-05T01:05:12;22.57;;;6.17;;
3922;SDS011;1976;51.694;6.256;2023-02-05T01:07:38;18.73;;;6.07;;
3922;SDS011;1976;51.694;6.256;2023-02-05T01:10:04;37.63;;;7.43;;
3922;SDS011;1976;51.694;6.256;2023-02-05T01:12:30;19.03;;;6.53;;
3922;SDS011;1976;51.694;6.256;2023-02-05T01:14:58;21.83;;;5.63;;
3922;SDS011;1976;51.694;6.256;2023-02-05T01:17:24;28.93;;;7.10;;
3922;SDS011;1976;51.694;6.256;2023-02-05T01:19:50;22.17;;;6.53;;
3922;SDS011;1976;51.694;6.256;2023-02-05T01:22:16;28.07;;;6.63;;
3922;SDS011;1976;51.694;6.256;2023-02-05T01:24:41;31.13;;;7.50;;
3922;SDS011;1976;51.694;6.256;2023-02-05T01:27:07;21.03;;;6.53;;
3922;SDS011;1976;51.694;6.256;2023-02-05T01:29:33;23.67;;;6.60;;
3922;SDS011;1976;51.694;6.256;2023-02-05T01:31:58;16.90;;;6.50;;
3922;SDS011;1976;51.694;6.256;2023-02-05T01:34:24;33.70;;;6.67;;
3922;SDS011;1976;51.694;6.256;2023-02-05T01:36:49;24.40;;;8.33;;
3922;SDS011;1976;51.694;6.256;2023-02-05T01:39:15;34.90;;;9.30;;
3922;SDS011;1976;51.694;6.256;2023-02-05T01:41:41;23.60;;;7.33;;
3922;SDS011;1976;51.694;6.256;2023-02-05T01:44:16;25.37;;;8.33;;
3922;SDS011;1976;51.694;6.256;2023-02-05T01:46:46;33.80;;;7.70;;
3922;SDS011;1976;51.694;6.256;2023-02-05T01:51:52;24.37;;;8.03;;
3922;SDS011;1976;51.694;6.256;2023-02-05T01:54:21;32.60;;;7.73;;
3922;SDS011;1976;51.694;6.256;2023-02-05T01:56:52;27.47;;;8.40;;
3922;SDS011;1976;51.694;6.256;2023-02-05T01:59:27;45.70;;;8.70;;
3922;SDS011;1976;51.694;6.256;2023-02-05T02:01:57;27.20;;;9.30;;
3922;SDS011;1976;51.694;6.256;2023-02-05T02:04:38;30.53;;;9.77;;
3922;SDS011;1976;51.694;6.256;2023-02-05T02:07:06;44.57;;;8.70;;
3922;SDS011;1976;51.694;6.256;2023-02-05T02:09:35;36.77;;;9.80;;
3922;SDS011;1976;51.694;6.256;2023-02-05T02:12:02;31.03;;;9.73;;
3922;SDS011;1976;51.694;6.256;2023-02-05T02:14:29;36.60;;;10.20;;
3922;SDS011;1976;51.694;6.256;2023-02-05T02:16:56;44.57;;;10.23;;
3922;SDS011;1976;51.694;6.256;2023-02-05T02:22:11;31.73;;;10.90;;
3922;SDS011;1976;51.694;6.256;2023-02-05T02:27:42;32.93;;;10.30;;
3922;SDS011;1976;51.694;6.256;2023-02-05T02:30:29;27.80;;;10.87;;
3922;SDS011;1976;51.694;6.256;2023-02-05T02:35:55;46.67;;;13.33;;
3922;SDS011;1976;51.694;6.256;2023-02-05T02:41:12;39.67;;;12.27;;
3922;SDS011;1976;51.694;6.256;2023-02-05T02:43:58;45.27;;;13.47;;
3922;SDS011;1976;51.694;6.256;2023-02-05T02:46:49;51.30;;;14.77;;
3922;SDS011;1976;51.694;6.256;2023-02-05T02:49:20;29.30;;;11.60;;
3922;SDS011;1976;51.694;6.256;2023-02-05T02:51:57;32.97;;;12.57;;
3922;SDS011;1976;51.694;6.256;2023-02-05T02:54:26;47.57;;;13.90;;
3922;SDS011;1976;51.694;6.256;2023-02-05T02:56:52;43.90;;;14.90;;
3922;SDS011;1976;51.694;6.256;2023-02-05T02:59:22;48.70;;;15.80;;
3922;SDS011;1976;51.694;6.256;2023-02-05T03:01:54;27.23;;;13.67;;
3922;SDS011;1976;51.694;6.256;2023-02-05T03:04:24;36.97;;;13.60;;
3922;SDS011;1976;51.694;6.256;2023-02-05T03:07:02;39.50;;;14.70;;
3922;SDS011;1976;51.694;6.256;2023-02-05T03:09:44;33.97;;;15.20;;
3922;SDS011;1976;51.694;6.256;2023-02-05T03:12:26;33.60;;;16.20;;
3922;SDS011;1976;51.694;6.256;2023-02-05T03:14:52;47.17;;;18.53;;
3922;SDS011;1976;51.694;6.256;2023-02-05T03:17:18;37.50;;;16.00;;
3922;SDS011;1976;51.694;6.256;2023-02-05T03:19:45;43.33;;;17.93;;
3922;SDS011;1976;51.694;6.256;2023-02-05T03:22:12;43.77;;;18.50;;
3922;SDS011;1976;51.694;6.256;2023-02-05T03:24:38;49.13;;;17.60;;
3922;SDS011;1976;51.694;6.256;2023-02-05T03:27:04;56.07;;;19.50;;
3922;SDS011;1976;51.694;6.256;2023-02-05T03:29:31;61.40;;;19.97;;
3922;SDS011;1976;51.694;6.256;2023-02-05T03:37:39;48.83;;;19.40;;
3922;SDS011;1976;51.694;6.256;2023-02-05T03:40:31;53.43;;;21.40;;
3922;SDS011;1976;51.694;6.256;2023-02-05T03:54:04;81.93;;;27.80;;
3922;SDS011;1976;51.694;6.256;2023-02-05T03:59:26;66.67;;;26.43;;
3922;SDS011;1976;51.694;6.256;2023-02-05T04:01:52;67.50;;;25.83;;
3922;SDS011;1976;51.694;6.256;2023-02-05T04:04:19;69.80;;;27.17;;
3922;SDS011;1976;51.694;6.256;2023-02-05T04:06:46;76.60;;;29.77;;
3922;SDS011;1976;51.694;6.256;2023-02-05T04:09:14;50.30;;;24.67;;
3922;SDS011;1976;51.694;6.256;2023-02-05T04:11:40;59.73;;;25.37;;
3922;SDS011;1976;51.694;6.256;2023-02-05T04:14:05;61.20;;;26.00;;
3922;SDS011;1976;51.694;6.256;2023-02-05T04:16:31;63.00;;;27.53;;
3922;SDS011;1976;51.694;6.256;2023-02-05T04:18:57;59.13;;;26.70;;
3922;SDS011;1976;51.694;6.256;2023-02-05T04:21:22;60.40;;;27.30;;
3922;SDS011;1976;51.694;6.256;2023-02-05T04:23:48;52.33;;;23.47;;
3922;SDS011;1976;51.694;6.256;2023-02-05T04:26:13;65.00;;;24.23;;
3922;SDS011;1976;51.694;6.256;2023-02-05T04:28:39;68.83;;;25.60;;
3922;SDS011;1976;51.694;6.256;2023-02-05T04:31:05;54.30;;;24.10;;
3922;SDS011;1976;51.694;6.256;2023-02-05T04:33:36;51.00;;;22.30;;
3922;SDS011;1976;51.694;6.256;2023-02-05T04:36:02;45.87;;;20.70;;
3922;SDS011;1976;51.694;6.256;2023-02-05T04:38:28;44.77;;;21.33;;
3922;SDS011;1976;51.694;6.256;2023-02-05T04:40:54;44.97;;;22.70;;
3922;SDS011;1976;51.694;6.256;2023-02-05T04:43:20;45.57;;;21.13;;
3922;SDS011;1976;51.694;6.256;2023-02-05T04:45:46;41.73;;;20.40;;
3922;SDS011;1976;51.694;6.256;2023-02-05T04:48:11;45.23;;;20.00;;
3922;SDS011;1976;51.694;6.256;2023-02-05T04:50:37;42.10;;;19.43;;
3922;SDS011;1976;51.694;6.256;2023-02-05T04:53:03;43.93;;;20.53;;
3922;SDS011;1976;51.694;6.256;2023-02-05T04:55:29;46.30;;;21.67;;
3922;SDS011;1976;51.694;6.256;2023-02-05T04:57:55;49.53;;;19.10;;
3922;SDS011;1976;51.694;6.256;2023-02-05T05:00:21;51.03;;;22.83;;
3922;SDS011;1976;51.694;6.256;2023-02-05T05:02:47;45.43;;;21.27;;
3922;SDS011;1976;51.694;6.256;2023-02-05T05:05:13;52.17;;;24.40;;
3922;SDS011;1976;51.694;6.256;2023-02-05T05:07:38;51.00;;;25.30;;
3922;SDS011;1976;51.694;6.256;2023-02-05T05:10:04;43.37;;;21.67;;
3922;SDS011;1976;51.694;6.256;2023-02-05T05:12:36;52.13;;;24.70;;
3922;SDS011;1976;51.694;6.256;2023-02-05T05:15:03;50.93;;;25.50;;
3922;SDS011;1976;51.694;6.256;2023-02-05T05:17:31;62.07;;;26.10;;
3922;SDS011;1976;51.694;6.256;2023-02-05T05:19:57;58.60;;;23.80;;
3922;SDS011;1976;51.694;6.256;2023-02-05T05:22:23;57.23;;;24.53;;
3922;SDS011;1976;51.694;6.256;2023-02-05T05:24:49;47.27;;;22.97;;
3922;SDS011;1976;51.694;6.256;2023-02-05T05:27:14;47.73;;;24.70;;
3922;SDS011;1976;51.694;6.256;2023-02-05T05:29:40;48.73;;;23.30;;
3922;SDS011;1976;51.694;6.256;2023-02-05T05:32:06;54.17;;;25.10;;
3922;SDS011;1976;51.694;6.256;2023-02-05T05:34:32;49.93;;;25.77;;
3922;SDS011;1976;51.694;6.256;2023-02-05T05:36:57;47.50;;;22.87;;
3922;SDS011;1976;51.694;6.256;2023-02-05T05:39:23;42.07;;;23.03;;
3922;SDS011;1976;51.694;6.256;2023-02-05T05:42:08;43.43;;;22.57;;
3922;SDS011;1976;51.694;6.256;2023-02-05T05:44:54;31.80;;;19.80;;
3922;SDS011;1976;51.694;6.256;2023-02-05T05:47:20;45.03;;;19.70;;
3922;SDS011;1976;51.694;6.256;2023-02-05T05:49:46;29.83;;;17.47;;
3922;SDS011;1976;51.694;6.256;2023-02-05T05:52:12;36.63;;;17.47;;
3922;SDS011;1976;51.694;6.256;2023-02-05T05:54:37;41.60;;;19.27;;
3922;SDS011;1976;51.694;6.256;2023-02-05T05:57:03;40.30;;;19.10;;
3922;SDS011;1976;51.694;6.256;2023-02-05T05:59:29;38.80;;;19.77;;
3922;SDS011;1976;51.694;6.256;2023-02-05T06:01:55;34.60;;;17.10;;
3922;SDS011;1976;51.694;6.256;2023-02-05T06:04:21;34.73;;;18.23;;
3922;SDS011;1976;51.694;6.256;2023-02-05T06:06:47;31.03;;;16.50;;
3922;SDS011;1976;51.694;6.256;2023-02-05T06:09:12;34.00;;;16.80;;
3922;SDS011;1976;51.694;6.256;2023-02-05T06:11:38;25.40;;;14.83;;
3922;SDS011;1976;51.694;6.256;2023-02-05T06:14:04;31.10;;;15.60;;
3922;SDS011;1976;51.694;6.256;2023-02-05T06:16:29;31.13;;;14.70;;
3922;SDS011;1976;51.694;6.256;2023-02-05T06:18:55;33.97;;;16.00;;
3922;SDS011;1976;51.694;6.256;2023-02-05T06:21:21;27.57;;;15.40;;
3922;SDS011;1976;51.694;6.256;2023-02-05T06:23:47;28.23;;;13.83;;
3922;SDS011;1976;51.694;6.256;2023-02-05T06:26:13;27.97;;;12.87;;
3922;SDS011;1976;51.694;6.256;2023-02-05T06:28:39;27.60;;;13.30;;
3922;SDS011;1976;51.694;6.256;2023-02-05T06:31:04;22.53;;;11.87;;
3922;SDS011;1976;51.694;6.256;2023-02-05T06:33:30;21.77;;;9.83;;
3922;SDS011;1976;51.694;6.256;2023-02-05T06:35:56;18.00;;;9.80;;
3922;SDS011;1976;51.694;6.256;2023-02-05T06:38:21;21.60;;;7.80;;
3922;SDS011;1976;51.694;6.256;2023-02-05T06:40:47;21.37;;;9.93;;
3922;SDS011;1976;51.694;6.256;2023-02-05T06:43:13;16.47;;;9.07;;
3922;SDS011;1976;51.694;6.256;2023-02-05T06:45:38;21.20;;;10.40;;
3922;SDS011;1976;51.694;6.256;2023-02-05T06:48:04;25.17;;;9.70;;
3922;SDS011;1976;51.694;6.256;2023-02-05T06:50:30;22.53;;;12.23;;
3922;SDS011;1976;51.694;6.256;2023-02-05T06:52:56;10.63;;;6.77;;
3922;SDS011;1976;51.694;6.256;2023-02-05T06:55:21;16.47;;;8.87;;
3922;SDS011;1976;51.694;6.256;2023-02-05T06:57:47;17.60;;;9.87;;
3922;SDS011;1976;51.694;6.256;2023-02-05T07:00:13;15.87;;;10.13;;
3922;SDS011;1976;51.694;6.256;2023-02-05T07:02:39;18.70;;;8.17;;
3922;SDS011;1976;51.694;6.256;2023-02-05T07:05:05;14.87;;;8.37;;
3922;SDS011;1976;51.694;6.256;2023-02-05T07:07:30;13.40;;;8.97;;
3922;SDS011;1976;51.694;6.256;2023-02-05T07:09:57;15.27;;;10.00;;
3922;SDS011;1976;51.694;6.256;2023-02-05T07:12:23;14.63;;;9.00;;
3922;SDS011;1976;51.694;6.256;2023-02-05T07:14:49;10.57;;;6.87;;
3922;SDS011;1976;51.694;6.256;2023-02-05T07:17:15;5.97;;;5.33;;
3922;SDS011;1976;51.694;6.256;2023-02-05T07:19:40;8.87;;;3.83;;
3922;SDS011;1976;51.694;6.256;2023-02-05T07:22:06;4.07;;;2.47;;
3922;SDS011;1976;51.694;6.256;2023-02-05T07:24:32;4.87;;;2.33;;
3922;SDS011;1976;51.694;6.256;2023-02-05T07:26:57;3.10;;;2.30;;
3922;SDS011;1976;51.694;6.256;2023-02-05T07:29:23;1.20;;;1.20;;
3922;SDS011;1976;51.694;6.256;2023-02-05T07:31:49;2.47;;;1.50;;
3922;SDS011;1976;51.694;6.256;2023-02-05T07:34:16;4.33;;;1.20;;
3922;SDS011;1976;51.694;6.256;2023-02-05T07:36:41;6.57;;;1.43;;
3922;SDS011;1976;51.694;6.256;2023-02-05T07:39:07;11.83;;;1.37;;
3922;SDS011;1976;51.694;6.256;2023-02-05T07:41:33;4.60;;;1.40;;
3922;SDS011;1976;51.694;6.256;2023-02-05T07:43:59;4.33;;;1.30;;
3922;SDS011;1976;51.694;6.256;2023-02-05T07:46:24;8.30;;;1.50;;
3922;SDS011;1976;51.694;6.256;2023-02-05T07:48:50;1.70;;;1.10;;
3922;SDS011;1976;51.694;6.256;2023-02-05T07:51:16;7.93;;;1.30;;
3922;SDS011;1976;51.694;6.256;2023-02-05T07:53:47;6.17;;;1.20;;
3922;SDS011;1976;51.694;6.256;2023-02-05T07:56:13;12.80;;;1.00;;
3922;SDS011;1976;51.694;6.256;2023-02-05T07:58:40;3.33;;;1.13;;
3922;SDS011;1976;51.694;6.256;2023-02-05T08:01:06;4.00;;;1.10;;
3922;SDS011;1976;51.694;6.256;2023-02-05T08:03:32;2.10;;;1.00;;
3922;SDS011;1976;51.694;6.256;2023-02-05T08:06:02;6.73;;;1.60;;
3922;SDS011;1976;51.694;6.256;2023-02-05T08:08:33;9.80;;;1.90;;
3922;SDS011;1976;51.694;6.256;2023-02-05T08:11:00;9.93;;;1.40;;
3922;SDS011;1976;51.694;6.256;2023-02-05T08:13:27;3.70;;;1.70;;
3922;SDS011;1976;51.694;6.256;2023-02-05T08:15:53;5.10;;;1.27;;
3922;SDS011;1976;51.694;6.256;2023-02-05T08:18:18;5.77;;;1.20;;
3922;SDS011;1976;51.694;6.256;2023-02-05T08:20:44;10.43;;;2.43;;
3922;SDS011;1976;51.694;6.256;2023-02-05T08:23:10;8.63;;;1.37;;
3922;SDS011;1976;51.694;6.256;2023-02-05T08:25:36;12.00;;;1.70;;
3922;SDS011;1976;51.694;6.256;2023-02-05T08:28:03;10.77;;;1.90;;
3922;SDS011;1976;51.694;6.256;2023-02-05T08:30:29;5.50;;;1.57;;
3922;SDS011;1976;51.694;6.256;2023-02-05T08:32:55;8.10;;;1.47;;
3922;SDS011;1976;51.694;6.256;2023-02-05T08:35:21;9.17;;;1.33;;
3922;SDS011;1976;51.694;6.256;2023-02-05T08:37:46;4.20;;;1.47;;
3922;SDS011;1976;51.694;6.256;2023-02-05T08:40:12;9.23;;;2.20;;
3922;SDS011;1976;51.694;6.256;2023-02-05T08:42:38;9.57;;;2.00;;
3922;SDS011;1976;51.694;6.256;2023-02-05T08:45:04;7.00;;;1.67;;
3922;SDS011;1976;51.694;6.256;2023-02-05T08:47:33;10.10;;;3.00;;
3922;SDS011;1976;51.694;6.256;2023-02-05T08:49:59;7.23;;;1.60;;
3922;SDS011;1976;51.694;6.256;2023-02-05T08:52:25;4.03;;;1.57;;
3922;SDS011;1976;51.694;6.256;2023-02-05T08:54:51;7.83;;;2.10;;
3922;SDS011;1976;51.694;6.256;2023-02-05T08:57:16;6.17;;;1.93;;
3922;SDS011;1976;51.694;6.256;2023-02-05T08:59:42;7.90;;;2.00;;
3922;SDS011;1976;51.694;6.256;2023-02-05T09:02:09;4.37;;;2.07;;
3922;SDS011;1976;51.694;6.256;2023-02-05T09:04:38;12.83;;;2.00;;
3922;SDS011;1976;51.694;6.256;2023-02-05T09:07:04;6.57;;;2.67;;
3922;SDS011;1976;51.694;6.256;2023-02-05T09:09:30;5.57;;;1.67;;
3922;SDS011;1976;51.694;6.256;2023-02-05T09:11:56;9.50;;;1.67;;
3922;SDS011;1976;51.694;6.256;2023-02-05T09:14:22;17.87;;;2.40;;
3922;SDS011;1976;51.694;6.256;2023-02-05T09:16:48;16.33;;;1.80;;
3922;SDS011;1976;51.694;6.256;2023-02-05T09:19:14;16.23;;;2.27;;
3922;SDS011;1976;51.694;6.256;2023-02-05T09:21:40;7.63;;;1.67;;
3922;SDS011;1976;51.694;6.256;2023-02-05T09:24:06;7.20;;;1.70;;
3922;SDS011;1976;51.694;6.256;2023-02-05T09:26:31;8.70;;;1.93;;
3922;SDS011;1976;51.694;6.256;2023-02-05T09:28:57;13.03;;;2.60;;
3922;SDS011;1976;51.694;6.256;2023-02-05T09:31:23;5.77;;;1.50;;
3922;SDS011;1976;51.694;6.256;2023-02-05T09:33:48;10.80;;;2.20;;
3922;SDS011;1976;51.694;6.256;2023-02-05T09:36:18;13.17;;;3.10;;
3922;SDS011;1976;51.694;6.256;2023-02-05T09:38:46;6.27;;;1.93;;
3922;SDS011;1976;51.694;6.256;2023-02-05T09:49:25;22.67;;;2.40;;
3922;SDS011;1976;51.694;6.256;2023-02-05T09:51:41;9.53;;;1.90;;
3922;SDS011;1976;51.694;6.256;2023-02-05T09:56:47;7.93;;;2.47;;
3922;SDS011;1976;51.694;6.256;2023-02-05T09:59:16;16.73;;;2.70;;
3922;SDS011;1976;51.694;6.256;2023-02-05T10:01:55;7.73;;;2.40;;
3922;SDS011;1976;51.694;6.256;2023-02-05T10:04:23;10.13;;;2.13;;
3922;SDS011;1976;51.694;6.256;2023-02-05T10:09:31;13.33;;;1.90;;
3922;SDS011;1976;51.694;6.256;2023-02-05T10:12:42;10.37;;;1.97;;
3922;SDS011;1976;51.694;6.256;2023-02-05T10:21:05;5.60;;;1.70;;
3922;SDS011;1976;51.694;6.256;2023-02-05T10:26:51;12.93;;;2.40;;
3922;SDS011;1976;51.694;6.256;2023-02-05T10:29:34;17.07;;;2.93;;
3922;SDS011;1976;51.694;6.256;2023-02-05T10:32:31;16.97;;;2.10;;
3922;SDS011;1976;51.694;6.256;2023-02-05T10:37:55;16.63;;;2.40;;
3922;SDS011;1976;51.694;6.256;2023-02-05T10:40:31;6.63;;;1.37;;
3922;SDS011;1976;51.694;6.256;2023-02-05T10:43:13;18.67;;;3.07;;
3922;SDS011;1976;51.694;6.256;2023-02-05T10:45:42;6.73;;;2.97;;
3922;SDS011;1976;51.694;6.256;2023-02-05T10:48:22;10.27;;;2.03;;
3922;SDS011;1976;51.694;6.256;2023-02-05T10:51:03;6.33;;;2.30;;
3922;SDS011;1976;51.694;6.256;2023-02-05T10:53:35;12.67;;;2.13;;
3922;SDS011;1976;51.694;6.256;2023-02-05T10:56:01;6.93;;;2.60;;
3922;SDS011;1976;51.694;6.256;2023-02-05T10:58:36;11.70;;;2.03;;
3922;SDS011;1976;51.694;6.256;2023-02-05T11:01:16;20.50;;;3.53;;
3922;SDS011;1976;51.694;6.256;2023-02-05T11:03:47;24.97;;;4.50;;
3922;SDS011;1976;51.694;6.256;2023-02-05T11:06:34;13.73;;;2.40;;
3922;SDS011;1976;51.694;6.256;2023-02-05T11:11:52;10.33;;;2.90;;
3922;SDS011;1976;51.694;6.256;2023-02-05T11:16:59;15.80;;;3.50;;
3922;SDS011;1976;51.694;6.256;2023-02-05T11:19:33;9.03;;;1.53;;
3922;SDS011;1976;51.694;6.256;2023-02-05T11:22:00;6.77;;;2.50;;
3922;SDS011;1976;51.694;6.256;2023-02-05T11:24:37;7.53;;;2.53;;
3922;SDS011;1976;51.694;6.256;2023-02-05T11:29:40;15.93;;;2.50;;
3922;SDS011;1976;51.694;6.256;2023-02-05T11:32:19;17.27;;;2.53;;
3922;SDS011;1976;51.694;6.256;2023-02-05T11:35:04;17.00;;;3.07;;
3922;SDS011;1976;51.694;6.256;2023-02-05T11:38:08;12.13;;;2.77;;
3922;SDS011;1976;51.694;6.256;2023-02-05T11:40:41;23.90;;;3.83;;
3922;SDS011;1976;51.694;6.256;2023-02-05T11:43:34;10.93;;;2.47;;
3922;SDS011;1976;51.694;6.256;2023-02-05T11:46:03;13.00;;;3.73;;
3922;SDS011;1976;51.694;6.256;2023-02-05T11:48:33;15.00;;;3.70;;
3922;SDS011;1976;51.694;6.256;2023-02-05T11:51:02;15.60;;;2.63;;
3922;SDS011;1976;51.694;6.256;2023-02-05T11:53:30;8.20;;;2.90;;
3922;SDS011;1976;51.694;6.256;2023-02-05T11:55:57;11.40;;;2.20;;
3922;SDS011;1976;51.694;6.256;2023-02-05T11:58:27;10.47;;;3.20;;
3922;SDS011;1976;51.694;6.256;2023-02-05T12:00:58;10.03;;;2.30;;
3922;SDS011;1976;51.694;6.256;2023-02-05T12:03:30;26.27;;;2.63;;
3922;SDS011;1976;51.694;6.256;2023-02-05T12:06:04;19.13;;;2.87;;
3922;SDS011;1976;51.694;6.256;2023-02-05T12:08:50;7.70;;;2.40;;
3922;SDS011;1976;51.694;6.256;2023-02-05T12:19:23;8.90;;;1.73;;
3922;SDS011;1976;51.694;6.256;2023-02-05T12:21:49;10.13;;;1.70;;
3922;SDS011;1976;51.694;6.256;2023-02-05T12:24:52;9.50;;;2.10;;
3922;SDS011;1976;51.694;6.256;2023-02-05T12:27:42;20.10;;;2.53;;
3922;SDS011;1976;51.694;6.256;2023-02-05T12:38:17;15.23;;;2.80;;
3922;SDS011;1976;51.694;6.256;2023-02-05T12:43:46;15.33;;;3.10;;
3922;SDS011;1976;51.694;6.256;2023-02-05T12:46:19;14.80;;;3.43;;
3922;SDS011;1976;51.694;6.256;2023-02-05T12:49:26;16.73;;;5.20;;
3922;SDS011;1976;51.694;6.256;2023-02-05T12:57:53;13.97;;;2.83;;
3922;SDS011;1976;51.694;6.256;2023-02-05T13:00:27;13.60;;;2.23;;
3922;SDS011;1976;51.694;6.256;2023-02-05T13:06:01;24.83;;;3.87;;
3922;SDS011;1976;51.694;6.256;2023-02-05T13:08:40;16.87;;;3.50;;
3922;SDS011;1976;51.694;6.256;2023-02-05T13:11:23;23.50;;;2.63;;
3922;SDS011;1976;51.694;6.256;2023-02-05T13:14:02;14.57;;;3.67;;
3922;SDS011;1976;51.694;6.256;2023-02-05T13:22:20;7.63;;;1.90;;
3922;SDS011;1976;51.694;6.256;2023-02-05T13:25:24;10.70;;;2.57;;
3922;SDS011;1976;51.694;6.256;2023-02-05T13:31:05;14.20;;;2.60;;
3922;SDS011;1976;51.694;6.256;2023-02-05T13:33:42;11.27;;;2.17;;
3922;SDS011;1976;51.694;6.256;2023-02-05T13:36:14;16.60;;;3.73;;
3922;SDS011;1976;51.694;6.256;2023-02-05T13:47:33;18.63;;;2.97;;
3922;SDS011;1976;51.694;6.256;2023-02-05T14:00:33;16.30;;;2.90;;
3922;SDS011;1976;51.694;6.256;2023-02-05T14:03:01;15.50;;;3.23;;
3922;SDS011;1976;51.694;6.256;2023-02-05T14:05:47;8.83;;;2.73;;
3922;SDS011;1976;51.694;6.256;2023-02-05T14:08:23;11.90;;;3.10;;
3922;SDS011;1976;51.694;6.256;2023-02-05T14:10:58;13.73;;;3.03;;
3922;SDS011;1976;51.694;6.256;2023-02-05T14:13:27;14.97;;;2.80;;
3922;SDS011;1976;51.694;6.256;2023-02-05T14:15:58;19.73;;;2.40;;
3922;SDS011;1976;51.694;6.256;2023-02-05T14:18:49;12.80;;;2.93;;
3922;SDS011;1976;51.694;6.256;2023-02-05T14:24:24;21.60;;;3.73;;
3922;SDS011;1976;51.694;6.256;2023-02-05T14:26:56;12.20;;;2.97;;
3922;SDS011;1976;51.694;6.256;2023-02-05T14:29:37;14.07;;;2.63;;
3922;SDS011;1976;51.694;6.256;2023-02-05T14:32:11;16.43;;;2.60;;
3922;SDS011;1976;51.694;6.256;2023-02-05T14:37:48;11.73;;;2.70;;
3922;SDS011;1976;51.694;6.256;2023-02-05T14:40:21;18.97;;;2.87;;
3922;SDS011;1976;51.694;6.256;2023-02-05T14:42:50;17.50;;;3.43;;
3922;SDS011;1976;51.694;6.256;2023-02-05T14:45:19;15.20;;;3.10;;
3922;SDS011;1976;51.694;6.256;2023-02-05T14:47:47;13.30;;;2.70;;
3922;SDS011;1976;51.694;6.256;2023-02-05T14:50:24;21.50;;;4.03;;
3922;SDS011;1976;51.694;6.256;2023-02-05T14:52:53;21.20;;;4.07;;
3922;SDS011;1976;51.694;6.256;2023-02-05T14:58:08;23.37;;;4.10;;
3922;SDS011;1976;51.694;6.256;2023-02-05T15:00:45;13.80;;;4.03;;
3922;SDS011;1976;51.694;6.256;2023-02-05T15:05:39;27.60;;;6.07;;
3922;SDS011;1976;51.694;6.256;2023-02-05T15:13:28;22.73;;;3.23;;
3922;SDS011;1976;51.694;6.256;2023-02-05T15:16:07;14.10;;;3.10;;
3922;SDS011;1976;51.694;6.256;2023-02-05T15:18:46;11.63;;;2.40;;
3922;SDS011;1976;51.694;6.256;2023-02-05T15:21:34;23.20;;;3.30;;
3922;SDS011;1976;51.694;6.256;2023-02-05T15:26:53;22.27;;;3.97;;
3922;SDS011;1976;51.694;6.256;2023-02-05T15:29:26;11.23;;;2.93;;
3922;SDS011;1976;51.694;6.256;2023-02-05T15:32:05;18.27;;;3.90;;
3922;SDS011;1976;51.694;6.256;2023-02-05T15:34:44;13.40;;;2.63;;
3922;SDS011;1976;51.694;6.256;2023-02-05T15:37:30;18.67;;;3.47;;
3922;SDS011;1976;51.694;6.256;2023-02-05T15:40:11;22.13;;;3.27;;
3922;SDS011;1976;51.694;6.256;2023-02-05T15:42:46;12.60;;;2.90;;
3922;SDS011;1976;51.694;6.256;2023-02-05T15:48:00;20.23;;;3.40;;
3922;SDS011;1976;51.694;6.256;2023-02-05T15:50:29;19.37;;;3.77;;
3922;SDS011;1976;51.694;6.256;2023-02-05T15:52:56;21.63;;;3.17;;
3922;SDS011;1976;51.694;6.256;2023-02-05T15:55:23;19.77;;;3.10;;
3922;SDS011;1976;51.694;6.256;2023-02-05T15:57:52;17.13;;;3.40;;
3922;SDS011;1976;51.694;6.256;2023-02-05T16:00:24;15.47;;;2.80;;
3922;SDS011;1976;51.694;6.256;2023-02-05T16:02:57;16.50;;;3.63;;
3922;SDS011;1976;51.694;6.256;2023-02-05T16:05:24;16.57;;;2.67;;
3922;SDS011;1976;51.694;6.256;2023-02-05T16:07:51;9.03;;;2.37;;
3922;SDS011;1976;51.694;6.256;2023-02-05T16:12:57;16.43;;;3.20;;
3922;SDS011;1976;51.694;6.256;2023-02-05T16:15:28;18.30;;;3.60;;
3922;SDS011;1976;51.694;6.256;2023-02-05T16:17:58;10.33;;;2.97;;
3922;SDS011;1976;51.694;6.256;2023-02-05T16:20:33;25.70;;;3.43;;
3922;SDS011;1976;51.694;6.256;2023-02-05T16:25:43;21.30;;;3.67;;
3922;SDS011;1976;51.694;6.256;2023-02-05T16:28:20;24.57;;;3.80;;
3922;SDS011;1976;51.694;6.256;2023-02-05T16:30:48;22.00;;;3.87;;
3922;SDS011;1976;51.694;6.256;2023-02-05T16:33:32;23.97;;;3.43;;
3922;SDS011;1976;51.694;6.256;2023-02-05T16:36:03;17.87;;;3.10;;
3922;SDS011;1976;51.694;6.256;2023-02-05T16:38:31;10.57;;;3.13;;
3922;SDS011;1976;51.694;6.256;2023-02-05T16:40:59;15.03;;;3.33;;
3922;SDS011;1976;51.694;6.256;2023-02-05T16:43:41;13.97;;;2.77;;
3922;SDS011;1976;51.694;6.256;2023-02-05T16:48:37;15.83;;;3.50;;
3922;SDS011;1976;51.694;6.256;2023-02-05T16:51:55;17.83;;;3.50;;
3922;SDS011;1976;51.694;6.256;2023-02-05T16:54:00;11.50;;;3.20;;
3922;SDS011;1976;51.694;6.256;2023-02-05T16:56:32;23.57;;;3.00;;
3922;SDS011;1976;51.694;6.256;2023-02-05T16:59:02;9.27;;;2.40;;
3922;SDS011;1976;51.694;6.256;2023-02-05T17:01:39;18.27;;;3.40;;
3922;SDS011;1976;51.694;6.256;2023-02-05T17:04:15;17.73;;;3.10;;
3922;SDS011;1976;51.694;6.256;2023-02-05T17:06:54;19.20;;;3.30;;
3922;SDS011;1976;51.694;6.256;2023-02-05T17:09:40;23.80;;;3.37;;
3922;SDS011;1976;51.694;6.256;2023-02-05T17:14:57;17.07;;;3.07;;
3922;SDS011;1976;51.694;6.256;2023-02-05T17:17:24;18.73;;;4.93;;
3922;SDS011;1976;51.694;6.256;2023-02-05T17:20:00;25.93;;;2.90;;
3922;SDS011;1976;51.694;6.256;2023-02-05T17:22:26;22.33;;;3.80;;
3922;SDS011;1976;51.694;6.256;2023-02-05T17:24:52;29.83;;;3.67;;
3922;SDS011;1976;51.694;6.256;2023-02-05T17:30:04;14.90;;;4.50;;
3922;SDS011;1976;51.694;6.256;2023-02-05T17:32:35;20.87;;;3.97;;
3922;SDS011;1976;51.694;6.256;2023-02-05T17:35:01;18.30;;;3.40;;
3922;SDS011;1976;51.694;6.256;2023-02-05T17:37:27;20.87;;;3.97;;
3922;SDS011;1976;51.694;6.256;2023-02-05T17:39:52;20.03;;;3.50;;
3922;SDS011;1976;51.694;6.256;2023-02-05T17:42:20;28.93;;;4.23;;
3922;SDS011;1976;51.694;6.256;2023-02-05T17:44:48;26.97;;;4.83;;
3922;SDS011;1976;51.694;6.256;2023-02-05T17:47:14;16.27;;;4.10;;
3922;SDS011;1976;51.694;6.256;2023-02-05T17:49:40;19.53;;;3.53;;
3922;SDS011;1976;51.694;6.256;2023-02-05T17:52:06;23.20;;;3.70;;
3922;SDS011;1976;51.694;6.256;2023-02-05T17:54:33;28.67;;;4.40;;
3922;SDS011;1976;51.694;6.256;2023-02-05T17:57:09;15.90;;;3.27;;
3922;SDS011;1976;51.694;6.256;2023-02-05T17:59:41;14.90;;;3.30;;